createdAt,value
2023-04-15T00:02:00.233Z,4.28
2023-04-15T00:04:28.054Z,4.05
2023-04-15T00:06:54.958Z,4.57
2023-04-15T00:09:21.684Z,4.50
2023-04-15T00:11:48.248Z,4.35
2023-04-15T00:14:14.840Z,4.13
2023-04-15T00:16:41.661Z,4.95
2023-04-15T00:19:08.512Z,4.45
2023-04-15T00:24:02.040Z,4.18
2023-04-15T00:26:28.680Z,4.53
2023-04-15T00:28:55.255Z,4.10
2023-04-15T00:31:22.099Z,4.93
2023-04-15T00:33:48.900Z,4.93
2023-04-15T00:38:42.224Z,4.00
2023-04-15T00:41:11.044Z,5.47
2023-04-15T00:43:38.345Z,4.55
2023-04-15T00:46:06.110Z,4.72
2023-04-15T00:48:32.840Z,5.25
2023-04-15T00:50:59.484Z,3.85
2023-04-15T00:53:26.072Z,5.50
2023-04-15T00:55:52.930Z,4.68
2023-04-15T00:58:19.611Z,4.70
2023-04-15T01:00:46.904Z,5.15
2023-04-15T01:03:14.288Z,4.93
2023-04-15T01:05:41.805Z,4.65
2023-04-15T01:08:08.410Z,5.13
2023-04-15T01:10:36.120Z,4.28
2023-04-15T01:13:04.118Z,5.03
2023-04-15T01:15:32.228Z,5.20
2023-04-15T01:17:59.576Z,5.80
2023-04-15T01:20:27.661Z,5.25
2023-04-15T01:22:55.012Z,5.97
2023-04-15T01:25:34.936Z,5.35
2023-04-15T01:28:01.610Z,4.85
2023-04-15T01:30:28.169Z,5.20
2023-04-15T01:32:55.135Z,4.82
2023-04-15T01:35:22.695Z,5.22
2023-04-15T01:37:49.607Z,5.20
2023-04-15T01:40:16.745Z,5.15
2023-04-15T01:42:43.310Z,5.85
2023-04-15T01:45:10.225Z,5.53
2023-04-15T01:47:36.791Z,5.10
2023-04-15T01:50:03.541Z,5.45
2023-04-15T01:52:30.563Z,5.05
2023-04-15T01:54:57.288Z,5.75
2023-04-15T01:59:50.283Z,4.97
2023-04-15T02:02:17.601Z,6.05
2023-04-15T02:04:44.844Z,5.63
2023-04-15T02:07:11.458Z,5.57
2023-04-15T02:09:38.796Z,5.82
2023-04-15T02:12:06.033Z,6.10
2023-04-15T02:14:32.732Z,6.10
2023-04-15T02:19:36.761Z,5.28
2023-04-15T02:22:03.325Z,6.10
2023-04-15T02:24:30.831Z,5.35
2023-04-15T02:26:57.723Z,5.68
2023-04-15T02:29:24.403Z,5.82
2023-04-15T02:31:51.274Z,6.50
2023-04-15T02:34:17.916Z,6.75
2023-04-15T02:36:44.458Z,7.15
2023-04-15T02:39:12.881Z,7.15
2023-04-15T02:41:39.768Z,6.35
2023-04-15T02:44:11.239Z,6.60
2023-04-15T02:46:38.010Z,7.10
2023-04-15T02:49:04.619Z,6.55
2023-04-15T02:51:32.375Z,7.25
2023-04-15T02:53:59.224Z,6.90
2023-04-15T02:56:25.839Z,7.15
2023-04-15T02:58:52.438Z,7.03
2023-04-15T03:01:19.309Z,6.93
2023-04-15T03:03:45.947Z,7.03
2023-04-15T03:06:12.543Z,7.75
2023-04-15T03:08:39.113Z,7.20
2023-04-15T03:11:05.712Z,7.55
2023-04-15T03:13:32.300Z,8.23
2023-04-15T03:15:58.969Z,7.78
2023-04-15T03:18:25.648Z,8.38
2023-04-15T03:20:52.223Z,9.02
2023-04-15T03:23:18.822Z,8.55
2023-04-15T03:25:45.930Z,8.00
2023-04-15T03:28:12.574Z,10.20
2023-04-15T03:30:39.126Z,8.80
2023-04-15T03:33:05.759Z,9.68
2023-04-15T03:35:32.402Z,9.68
2023-04-15T03:37:58.911Z,9.70
2023-04-15T03:40:25.595Z,9.63
2023-04-15T03:42:52.114Z,9.77
2023-04-15T03:45:18.795Z,9.93
2023-04-15T03:47:45.621Z,8.10
2023-04-15T03:52:39.399Z,8.07
2023-04-15T03:55:06.168Z,7.70
2023-04-15T03:59:59.385Z,6.93
2023-04-15T04:02:26.176Z,7.53
2023-04-15T04:04:53.126Z,7.90
2023-04-15T04:07:19.779Z,8.73
2023-04-15T04:09:47.439Z,8.27
2023-04-15T04:12:14.308Z,8.43
2023-04-15T04:17:07.642Z,7.40
2023-04-15T04:22:01.139Z,7.95
2023-04-15T04:24:27.727Z,8.10
2023-04-15T04:26:54.361Z,9.38
2023-04-15T04:29:21.002Z,9.07
2023-04-15T04:31:48.867Z,8.82
2023-04-15T04:34:16.276Z,9.60
2023-04-15T04:36:42.852Z,9.27
2023-04-15T04:39:09.451Z,8.60
2023-04-15T04:41:36.141Z,9.48
2023-04-15T04:44:02.717Z,9.75
2023-04-15T04:46:29.328Z,9.80
2023-04-15T04:48:55.926Z,10.02
2023-04-15T04:51:22.629Z,9.68
2023-04-15T04:56:15.693Z,8.27
2023-04-15T04:58:42.618Z,10.40
2023-04-15T05:01:09.392Z,9.30
2023-04-15T05:06:06.240Z,8.65
2023-04-15T05:08:33.132Z,9.23
2023-04-15T05:10:59.730Z,9.23
2023-04-15T05:13:26.538Z,9.43
2023-04-15T05:18:20.741Z,9.25
2023-04-15T05:20:47.335Z,10.40
2023-04-15T05:23:13.922Z,10.15
2023-04-15T05:25:40.694Z,10.68
2023-04-15T05:30:33.943Z,10.57
2023-04-15T05:35:27.316Z,11.20
2023-04-15T05:37:53.840Z,10.63
2023-04-15T05:40:20.901Z,11.02
2023-04-15T05:42:47.474Z,10.98
2023-04-15T05:47:40.679Z,10.82
2023-04-15T05:50:07.481Z,11.60
2023-04-15T05:55:00.635Z,10.02
2023-04-15T05:57:27.174Z,10.45
2023-04-15T05:59:53.827Z,10.93
2023-04-15T06:02:20.649Z,10.80
2023-04-15T06:04:47.548Z,10.27
2023-04-15T06:07:14.274Z,11.30
2023-04-15T06:09:41.302Z,10.57
2023-04-15T06:12:12.297Z,9.18
2023-04-15T06:14:39.505Z,8.57
2023-04-15T06:17:06.388Z,10.15
2023-04-15T06:19:33.528Z,9.48
2023-04-15T06:22:00.271Z,10.38
2023-04-15T06:26:53.357Z,7.80
2023-04-15T06:29:19.998Z,9.02
2023-04-15T06:31:48.254Z,8.27
2023-04-15T06:34:14.812Z,7.20
2023-04-15T06:36:41.359Z,7.30
2023-04-15T06:39:07.891Z,8.23
2023-04-15T06:41:35.577Z,8.55
2023-04-15T06:44:02.310Z,7.43
2023-04-15T06:48:55.289Z,8.13
2023-04-15T06:51:23.003Z,8.18
2023-04-15T06:53:50.518Z,9.02
2023-04-15T06:56:17.135Z,8.77
2023-04-15T06:58:43.671Z,8.32
2023-04-15T07:01:10.509Z,9.35
2023-04-15T07:06:06.679Z,7.68
2023-04-15T07:08:33.900Z,7.78
2023-04-15T07:11:01.710Z,7.07
2023-04-15T07:13:28.377Z,8.05
2023-04-15T07:18:21.564Z,7.30
2023-04-15T07:20:48.429Z,7.50
2023-04-15T07:23:15.054Z,7.38
2023-04-15T07:25:41.875Z,7.22
2023-04-15T07:30:35.028Z,6.97
2023-04-15T07:33:02.347Z,6.68
2023-04-15T07:35:29.604Z,7.40
2023-04-15T07:37:56.497Z,7.50
2023-04-15T07:40:23.172Z,7.85
2023-04-15T07:42:49.952Z,7.00
2023-04-15T07:47:43.765Z,5.70
2023-04-15T07:50:13.566Z,6.43
2023-04-15T07:52:41.607Z,6.80
2023-04-15T07:55:09.050Z,6.82
2023-04-15T07:57:36.425Z,6.72
2023-04-15T08:00:08.096Z,6.97
2023-04-15T08:02:40.454Z,6.45
2023-04-15T08:05:07.848Z,5.95
2023-04-15T08:07:38.036Z,6.80
2023-04-15T08:10:05.299Z,5.57
2023-04-15T08:12:34.513Z,6.50
2023-04-15T08:15:02.174Z,6.20
2023-04-15T08:17:28.783Z,6.22
2023-04-15T08:19:55.525Z,5.63
2023-04-15T08:22:22.724Z,5.88
2023-04-15T08:24:49.372Z,6.63
2023-04-15T08:27:16.210Z,6.22
2023-04-15T08:32:12.944Z,6.28
2023-04-15T08:34:40.086Z,5.72
2023-04-15T08:37:08.372Z,6.32
2023-04-15T08:39:35.337Z,5.93
2023-04-15T08:42:03.928Z,7.13
2023-04-15T08:44:33.543Z,6.25
2023-04-15T08:47:03.533Z,5.07
2023-04-15T08:49:30.700Z,4.85
2023-04-15T08:51:59.830Z,4.80
2023-04-15T08:54:27.483Z,5.80
2023-04-15T08:56:54.754Z,5.55
2023-04-15T08:59:22.530Z,5.18
2023-04-15T09:01:51.146Z,4.90
2023-04-15T09:04:18.156Z,4.60
2023-04-15T09:06:44.990Z,4.57
2023-04-15T09:11:40.562Z,4.20
2023-04-15T09:14:07.191Z,4.60
2023-04-15T09:17:04.072Z,4.57
2023-04-15T09:19:31.804Z,4.70
2023-04-15T09:21:59.677Z,4.85
2023-04-15T09:24:37.592Z,4.32
2023-04-15T09:27:04.675Z,4.78
2023-04-15T09:29:31.740Z,4.53
2023-04-15T09:32:14.112Z,5.20
2023-04-15T09:34:40.798Z,3.60
2023-04-15T09:40:01.360Z,4.10
2023-04-15T09:42:29.568Z,4.35
2023-04-15T09:44:56.232Z,4.82
2023-04-15T09:47:32.954Z,4.45
2023-04-15T09:50:01.202Z,4.25
2023-04-15T09:52:29.085Z,4.90
2023-04-15T09:54:58.673Z,4.93
2023-04-15T09:57:25.539Z,5.68
2023-04-15T09:59:52.614Z,5.22
2023-04-15T10:02:23.275Z,5.13
2023-04-15T10:04:50.885Z,4.53
2023-04-15T10:07:20.742Z,5.47
2023-04-15T10:09:49.275Z,5.70
2023-04-15T10:12:20.388Z,6.07
2023-04-15T10:14:56.855Z,4.95
2023-04-15T10:17:27.912Z,6.30
2023-04-15T10:19:55.965Z,5.32
2023-04-15T10:22:23.492Z,6.22
2023-04-15T10:24:51.280Z,6.30
2023-04-15T10:27:18.219Z,6.78
2023-04-15T10:29:44.964Z,7.13
2023-04-15T10:34:38.586Z,6.72
2023-04-15T10:37:05.318Z,6.75
2023-04-15T10:42:20.246Z,6.57
2023-04-15T10:44:54.075Z,7.05
2023-04-15T10:47:22.211Z,8.23
2023-04-15T10:49:52.681Z,8.35
2023-04-15T10:52:24.391Z,7.75
2023-04-15T10:55:01.982Z,8.25
2023-04-15T10:57:38.677Z,8.02
2023-04-15T11:00:09.052Z,8.52
2023-04-15T11:02:42.076Z,7.82
2023-04-15T11:05:10.660Z,8.45
2023-04-15T11:07:37.427Z,7.97
2023-04-15T11:12:38.988Z,9.10
2023-04-15T11:15:27.640Z,10.55
2023-04-15T11:17:54.290Z,9.43
2023-04-15T11:23:14.800Z,9.40
2023-04-15T11:25:41.941Z,10.82
2023-04-15T11:28:08.629Z,10.07
2023-04-15T11:33:05.354Z,10.55
2023-04-15T11:35:32.596Z,10.35
2023-04-15T11:38:02.961Z,11.20
2023-04-15T11:40:31.569Z,11.90
2023-04-15T11:43:22.195Z,11.73
2023-04-15T11:45:48.850Z,12.35
2023-04-15T11:50:42.259Z,11.23
2023-04-15T11:53:11.759Z,13.73
2023-04-15T11:55:53.327Z,14.25
2023-04-15T11:58:21.511Z,14.13
2023-04-15T12:00:53.550Z,13.55
2023-04-15T12:03:24.903Z,12.10
2023-04-15T12:06:20.744Z,14.30
2023-04-15T12:09:18.373Z,12.75
2023-04-15T12:11:50.356Z,13.43
2023-04-15T12:14:16.880Z,13.77
2023-04-15T12:16:48.718Z,16.75
2023-04-15T12:19:25.314Z,15.15
2023-04-15T12:21:54.152Z,12.73
2023-04-15T12:24:23.182Z,14.05
2023-04-15T12:26:55.130Z,13.98
2023-04-15T12:29:26.816Z,15.35
2023-04-15T12:31:55.835Z,14.20
2023-04-15T12:34:44.935Z,15.05
2023-04-15T12:37:16.206Z,14.30
2023-04-15T12:39:44.366Z,14.30
2023-04-15T12:42:11.786Z,19.35
2023-04-15T12:44:39.661Z,16.33
2023-04-15T12:47:08.201Z,14.52
2023-04-15T12:49:35.420Z,16.90
2023-04-15T12:52:03.224Z,15.98
2023-04-15T12:54:31.549Z,16.58
2023-04-15T12:56:58.747Z,15.50
2023-04-15T12:59:25.414Z,17.42
2023-04-15T13:04:20.787Z,16.02
2023-04-15T13:06:47.874Z,14.75
2023-04-15T13:09:15.854Z,15.48
2023-04-15T13:11:42.780Z,15.25
2023-04-15T13:14:09.765Z,17.73
2023-04-15T13:16:36.541Z,17.45
2023-04-15T13:19:04.387Z,18.25
2023-04-15T13:21:35.336Z,18.75
2023-04-15T13:24:03.082Z,18.23
2023-04-15T13:26:29.933Z,18.15
2023-04-15T13:31:23.460Z,20.05
2023-04-15T13:33:50.067Z,20.52
2023-04-15T13:36:16.767Z,21.70
2023-04-15T13:41:09.941Z,17.25
2023-04-15T13:43:36.738Z,17.42
2023-04-15T13:48:30.126Z,16.98
2023-04-15T13:53:28.169Z,18.50
2023-04-15T13:56:05.926Z,18.02
2023-04-15T13:58:32.641Z,15.60
2023-04-15T14:03:26.079Z,18.15
2023-04-15T14:05:56.182Z,17.02
2023-04-15T14:08:23.838Z,16.17
2023-04-15T14:10:50.519Z,19.15
2023-04-15T14:15:43.555Z,16.17
2023-04-15T14:18:10.117Z,18.77
2023-04-15T14:20:36.665Z,20.88
2023-04-15T14:23:03.203Z,17.23
2023-04-15T14:25:33.720Z,16.08
2023-04-15T14:28:01.311Z,18.33
2023-04-15T14:30:27.969Z,17.67
2023-04-15T14:35:21.110Z,14.55
2023-04-15T14:40:14.200Z,13.77
2023-04-15T14:42:40.758Z,15.23
2023-04-15T14:45:07.909Z,15.80
2023-04-15T14:47:34.563Z,18.65
2023-04-15T14:52:27.733Z,15.88
2023-04-15T14:54:54.292Z,15.68
2023-04-15T14:57:20.831Z,19.20
2023-04-15T14:59:47.485Z,18.67
2023-04-15T15:04:53.167Z,16.88
2023-04-15T15:07:19.848Z,17.45
2023-04-15T15:09:46.392Z,15.90
2023-04-15T15:12:13.016Z,16.48
2023-04-15T15:17:12.229Z,15.57
2023-04-15T15:19:49.923Z,15.73
2023-04-15T15:22:44.094Z,17.27
2023-04-15T15:25:11.075Z,17.95
2023-04-15T15:27:38.400Z,17.42
2023-04-15T15:30:06.924Z,16.55
2023-04-15T15:32:33.639Z,16.17
2023-04-15T15:37:26.874Z,16.08
2023-04-15T15:42:20.073Z,14.18
2023-04-15T15:47:13.257Z,13.75
2023-04-15T15:52:06.833Z,15.05
2023-04-15T15:54:33.739Z,18.40
2023-04-15T15:57:00.468Z,19.58
2023-04-15T15:59:27.565Z,16.58
2023-04-15T16:01:54.306Z,17.58
2023-04-15T16:04:21.159Z,16.23
2023-04-15T16:06:48.543Z,16.10
2023-04-15T16:09:15.333Z,16.70
2023-04-15T16:11:41.992Z,15.95
2023-04-15T16:16:35.782Z,13.90
2023-04-15T16:19:02.693Z,17.17
2023-04-15T16:21:29.580Z,14.60
2023-04-15T16:26:23.347Z,13.90
2023-04-15T16:28:49.994Z,15.05
2023-04-15T16:33:43.214Z,12.85
2023-04-15T16:38:36.469Z,13.25
2023-04-15T16:43:29.778Z,17.65
2023-04-15T16:45:56.611Z,16.45
2023-04-15T16:48:23.317Z,21.08
2023-04-15T16:53:16.616Z,16.15
2023-04-15T16:55:43.308Z,17.02
2023-04-15T17:00:37.078Z,16.45
2023-04-15T17:03:06.167Z,19.38
2023-04-15T17:05:33.253Z,18.08
2023-04-15T17:07:59.910Z,21.55
2023-04-15T17:12:56.333Z,15.70
2023-04-15T17:15:23.016Z,18.25
2023-04-15T17:20:17.669Z,16.65
2023-04-15T17:22:46.175Z,18.00
2023-04-15T17:25:14.003Z,18.60
2023-04-15T17:27:40.879Z,18.98
2023-04-15T17:30:08.542Z,17.85
2023-04-15T17:32:35.599Z,17.80
2023-04-15T17:35:06.559Z,18.50
2023-04-15T17:37:36.497Z,18.63
2023-04-15T17:40:04.036Z,15.48
2023-04-15T17:42:31.435Z,15.30
2023-04-15T17:47:24.623Z,12.95
2023-04-15T17:49:51.334Z,14.30
2023-04-15T17:54:46.102Z,11.93
2023-04-15T17:57:12.783Z,14.45
2023-04-15T18:02:11.808Z,10.15
2023-04-15T18:04:39.270Z,9.93
2023-04-15T18:07:06.521Z,11.13
2023-04-15T18:09:33.165Z,10.27
2023-04-15T18:14:34.097Z,11.43
2023-04-15T18:17:02.415Z,10.40
2023-04-15T18:19:30.399Z,12.32
2023-04-15T18:21:57.062Z,11.07
2023-04-15T18:26:50.312Z,9.57
2023-04-15T18:31:43.959Z,10.05
2023-04-15T18:34:10.942Z,11.35
2023-04-15T18:36:37.773Z,11.82
2023-04-15T18:39:12.631Z,12.32
2023-04-15T18:41:39.443Z,10.75
2023-04-15T18:44:06.362Z,10.35
2023-04-15T18:46:32.994Z,10.85
2023-04-15T18:51:26.275Z,10.05
2023-04-15T18:56:19.502Z,9.32
2023-04-15T19:01:33.137Z,9.10
2023-04-15T19:03:59.917Z,9.40
2023-04-15T19:06:27.420Z,9.85
2023-04-15T19:08:54.427Z,9.52
2023-04-15T19:11:21.052Z,10.07
2023-04-15T19:16:14.304Z,9.32
2023-04-15T19:21:07.649Z,9.50
2023-04-15T19:23:34.359Z,8.15
2023-04-15T19:28:28.464Z,9.05
2023-04-15T19:30:55.375Z,9.57
2023-04-15T19:33:22.212Z,11.48
2023-04-15T19:35:50.217Z,10.48
2023-04-15T21:52:30.314Z,11.00
2023-04-15T21:54:56.906Z,11.98
2023-04-15T21:57:23.426Z,13.88
2023-04-15T21:59:50.006Z,14.60
2023-04-15T22:02:16.846Z,14.00
2023-04-15T22:04:43.587Z,13.48
2023-04-15T22:09:36.684Z,11.23
2023-04-15T22:12:04.417Z,11.65
2023-04-15T22:14:31.144Z,12.85
2023-04-15T22:19:24.322Z,11.32
2023-04-15T22:24:38.238Z,13.67
2023-04-15T22:27:04.584Z,12.18
2023-04-15T22:29:31.229Z,12.68
2023-04-15T22:31:58.061Z,13.57
2023-04-15T22:34:24.720Z,12.60
2023-04-15T22:39:19.986Z,12.95
2023-04-15T22:41:46.909Z,12.60
2023-04-15T22:44:13.546Z,14.25
2023-04-15T22:49:10.673Z,12.10
2023-04-15T22:51:38.302Z,13.90
2023-04-15T22:54:04.942Z,14.40
2023-04-15T22:58:58.077Z,12.73
2023-04-15T23:03:56.729Z,13.10
2023-04-15T23:06:31.556Z,13.10
2023-04-15T23:08:58.148Z,12.90
2023-04-15T23:11:24.744Z,13.95
2023-04-15T23:13:51.335Z,14.73
2023-04-15T23:16:17.913Z,13.25
2023-04-15T23:21:11.210Z,10.90
2023-04-15T23:26:04.436Z,13.95
2023-04-15T23:28:31.224Z,12.68
2023-04-15T23:31:00.327Z,13.20
2023-04-15T23:33:27.481Z,13.32
2023-04-15T23:35:54.065Z,15.00
2023-04-15T23:38:20.724Z,13.95
2023-04-15T23:43:13.768Z,13.13
2023-04-15T23:45:40.397Z,13.77
2023-04-15T23:50:33.898Z,13.43
2023-04-15T23:55:27.002Z,13.27
